Time;durP1;ratioP1;P1;durP2;ratioP2;P2;SDS_P1;SDS_P2;PMS_P1;PMS_P2;Temp;Humidity;BMP_temperature;BMP_pressure;BME280_temperature;BME280_humidity;BME280_pressure;Samples;Min_cycle;Max_cycle;Signal;HPM_P1;HPM_P2
2023/09/01 00:00:46;;;;;;;7.60;4.13;;;13.90;99.90;;;;;;4980292;28;20034;-68
2023/09/01 00:03:13;;;;;;;7.32;2.33;;;13.90;99.90;;;;;;4959520;28;20049;-68
2023/09/01 00:05:38;;;;;;;4.18;2.13;;;13.90;99.90;;;;;;4978474;28;20037;-67
2023/09/01 00:08:04;;;;;;;10.35;2.67;;;13.90;99.90;;;;;;4964147;28;20399;-67
2023/09/01 00:10:30;;;;;;;5.07;2.40;;;14.00;99.90;;;;;;4975050;28;20049;-68
2023/09/01 00:12:57;;;;;;;7.38;2.40;;;13.90;99.90;;;;;;4978477;28;20026;-67
2023/09/01 00:15:23;;;;;;;7.75;2.42;;;14.00;99.90;;;;;;4977733;28;20022;-67
2023/09/01 00:17:49;;;;;;;11.40;2.65;;;13.90;99.90;;;;;;4975153;28;20073;-68
2023/09/01 00:20:15;;;;;;;9.52;2.92;;;14.00;99.90;;;;;;4976396;28;20026;-67
2023/09/01 00:22:40;;;;;;;8.93;3.45;;;14.00;99.90;;;;;;4976464;28;20045;-67
2023/09/01 00:25:06;;;;;;;6.22;2.67;;;14.00;99.90;;;;;;4976630;28;20504;-67
2023/09/01 00:27:32;;;;;;;5.97;1.85;;;14.00;99.90;;;;;;4976009;28;20039;-67
2023/09/01 00:29:57;;;;;;;7.00;3.45;;;14.00;99.90;;;;;;4975778;28;20104;-67
2023/09/01 00:32:23;;;;;;;10.00;3.70;;;14.00;99.90;;;;;;4977532;28;20038;-68
2023/09/01 00:34:56;;;;;;;7.13;3.17;;;14.00;99.90;;;;;;4988649;28;20045;-67
2023/09/01 00:37:22;;;;;;;6.43;2.30;;;14.00;99.90;;;;;;4976684;28;20396;-67
2023/09/01 00:39:48;;;;;;;7.47;3.03;;;14.00;99.90;;;;;;4975052;28;21217;-67
2023/09/01 00:42:13;;;;;;;4.13;2.05;;;14.00;99.90;;;;;;4976550;28;20038;-67
2023/09/01 00:44:39;;;;;;;8.85;2.65;;;14.00;99.90;;;;;;4977306;28;20105;-68
2023/09/01 00:47:05;;;;;;;11.57;2.67;;;14.00;99.90;;;;;;4974726;28;20057;-67
2023/09/01 00:49:32;;;;;;;10.63;3.55;;;14.00;99.90;;;;;;4975767;28;20034;-67
2023/09/01 00:51:58;;;;;;;5.35;2.55;;;14.00;99.90;;;;;;4976504;28;20034;-67
2023/09/01 00:54:23;;;;;;;5.60;2.97;;;14.00;99.90;;;;;;4976598;28;20097;-67
2023/09/01 00:56:53;;;;;;;6.88;2.47;;;14.00;99.90;;;;;;4990924;28;20031;-68
2023/09/01 00:59:20;;;;;;;4.25;2.60;;;14.10;99.90;;;;;;4976074;28;20027;-67
2023/09/01 01:01:46;;;;;;;4.85;2.15;;;14.10;99.90;;;;;;4967606;28;20164;-67
2023/09/01 01:04:14;;;;;;;6.30;2.25;;;14.00;99.90;;;;;;4973051;28;20047;-67
2023/09/01 01:06:52;;;;;;;3.88;2.20;;;14.00;99.90;;;;;;4978486;28;20061;-68
2023/09/01 01:09:25;;;;;;;7.22;2.60;;;14.00;99.90;;;;;;4978549;28;20413;-67
2023/09/01 01:12:21;;;;;;;7.82;2.40;;;14.10;99.90;;;;;;4977776;28;20038;-68
2023/09/01 01:14:52;;;;;;;6.78;2.50;;;14.10;99.90;;;;;;4980808;28;20114;-67
2023/09/01 01:17:19;;;;;;;6.60;2.50;;;14.10;99.90;;;;;;4977783;28;20023;-67
2023/09/01 01:20:02;;;;;;;14.80;3.80;;;14.10;99.90;;;;;;4974574;28;20125;-67
2023/09/01 01:22:46;;;;;;;7.60;2.87;;;14.10;99.90;;;;;;4979778;28;20029;-67
2023/09/01 01:25:13;;;;;;;3.92;2.65;;;14.10;99.90;;;;;;4981055;28;20030;-67
2023/09/01 01:27:41;;;;;;;5.35;2.70;;;14.10;99.90;;;;;;4977715;28;20042;-67
2023/09/01 01:30:09;;;;;;;8.90;2.53;;;14.10;99.90;;;;;;4982293;28;20030;-67
2023/09/01 01:32:35;;;;;;;6.10;2.60;;;14.10;99.90;;;;;;4995456;28;20039;-67
2023/09/01 01:35:10;;;;;;;9.88;3.78;;;14.10;99.90;;;;;;4981659;28;20121;-67
2023/09/01 01:37:43;;;;;;;5.88;3.13;;;14.10;99.90;;;;;;4976956;28;20042;-68
2023/09/01 01:40:09;;;;;;;6.90;2.77;;;14.20;99.90;;;;;;4979927;28;20117;-67
2023/09/01 01:42:37;;;;;;;5.75;2.50;;;14.20;99.90;;;;;;4980618;28;20034;-67
2023/09/01 01:45:04;;;;;;;6.95;2.80;;;14.20;99.90;;;;;;4980368;28;20121;-67
2023/09/01 01:47:32;;;;;;;5.80;2.85;;;14.20;99.90;;;;;;4976920;28;20027;-66
2023/09/01 01:49:58;;;;;;;9.23;3.13;;;14.30;99.90;;;;;;4979606;28;20039;-69
2023/09/01 01:52:23;;;;;;;6.10;2.80;;;14.30;99.90;;;;;;4980328;28;20062;-67
2023/09/01 01:54:49;;;;;;;7.45;2.90;;;14.30;99.90;;;;;;4979291;28;20034;-67
2023/09/01 01:57:15;;;;;;;6.88;2.70;;;14.30;99.90;;;;;;4978927;28;21238;-68
2023/09/01 01:59:41;;;;;;;5.72;2.58;;;14.20;99.90;;;;;;4978661;28;20039;-67
2023/09/01 02:02:07;;;;;;;7.45;2.95;;;14.30;99.90;;;;;;4970963;28;20591;-67
2023/09/01 02:04:33;;;;;;;7.30;3.10;;;14.30;99.90;;;;;;4981963;28;20109;-67
2023/09/01 02:06:58;;;;;;;6.72;3.30;;;14.30;99.90;;;;;;4980514;28;20388;-67
2023/09/01 02:09:25;;;;;;;7.65;2.72;;;14.30;99.90;;;;;;4978218;28;20066;-67
2023/09/01 02:11:51;;;;;;;7.88;3.78;;;14.30;99.90;;;;;;4976841;28;20597;-67
2023/09/01 02:14:17;;;;;;;7.82;2.97;;;14.30;99.90;;;;;;4980764;28;20034;-67
2023/09/01 02:16:43;;;;;;;11.07;3.60;;;14.30;99.90;;;;;;4977414;28;20105;-67
2023/09/01 02:19:11;;;;;;;5.85;3.28;;;14.30;99.90;;;;;;4981599;28;20113;-67
2023/09/01 02:21:37;;;;;;;7.95;3.17;;;14.30;99.90;;;;;;4980589;28;20066;-67
2023/09/01 02:24:02;;;;;;;5.13;3.00;;;14.30;99.90;;;;;;4979989;28;20035;-67
2023/09/01 02:26:28;;;;;;;5.88;2.78;;;14.20;99.90;;;;;;4979942;28;20030;-67
2023/09/01 02:28:54;;;;;;;8.63;2.97;;;14.30;99.90;;;;;;4979740;28;20488;-67
2023/09/01 02:31:21;;;;;;;5.68;3.20;;;14.30;99.90;;;;;;4980466;28;20036;-66
2023/09/01 02:33:46;;;;;;;13.27;2.85;;;14.20;99.90;;;;;;4979916;28;20424;-67
2023/09/01 02:36:26;;;;;;;7.50;3.00;;;14.30;99.90;;;;;;4980571;28;20121;-67
2023/09/01 02:38:53;;;;;;;6.45;2.78;;;14.30;99.90;;;;;;4982313;28;20026;-67
2023/09/01 02:41:19;;;;;;;5.38;3.22;;;14.30;99.90;;;;;;4980927;28;20026;-67
2023/09/01 02:43:45;;;;;;;7.45;2.83;;;14.30;99.90;;;;;;4978009;28;20557;-67
2023/09/01 02:46:11;;;;;;;10.45;3.20;;;14.30;99.90;;;;;;4979784;28;20034;-67
2023/09/01 02:48:37;;;;;;;10.02;3.22;;;14.30;99.90;;;;;;4979778;28;20065;-67
2023/09/01 02:51:04;;;;;;;6.85;3.20;;;14.30;99.90;;;;;;4977484;28;20070;-67
2023/09/01 02:53:31;;;;;;;8.32;2.83;;;14.30;99.90;;;;;;4981552;28;20034;-67
2023/09/01 02:55:56;;;;;;;7.30;2.83;;;14.30;99.90;;;;;;4979027;28;20120;-67
2023/09/01 02:58:22;;;;;;;6.68;3.50;;;14.30;99.90;;;;;;4975872;28;20113;-66
2023/09/01 03:00:48;;;;;;;6.28;2.45;;;14.30;99.90;;;;;;4979334;28;20042;-69
2023/09/01 03:03:13;;;;;;;7.70;3.45;;;14.30;99.90;;;;;;4965074;28;20046;-68
2023/09/01 03:05:39;;;;;;;4.78;2.58;;;14.30;99.90;;;;;;4982722;28;20562;-67
2023/09/01 03:08:05;;;;;;;6.60;3.30;;;14.30;99.90;;;;;;4980190;28;20470;-66
2023/09/01 03:10:32;;;;;;;6.03;3.25;;;14.30;99.90;;;;;;4975918;28;20036;-67
2023/09/01 03:12:57;;;;;;;8.32;2.85;;;14.30;99.90;;;;;;4978695;28;20066;-66
2023/09/01 03:15:23;;;;;;;7.35;2.65;;;14.30;99.90;;;;;;4978368;28;20062;-67
2023/09/01 03:17:48;;;;;;;9.65;3.17;;;14.30;99.90;;;;;;4982314;28;20036;-66
2023/09/01 03:20:16;;;;;;;5.05;2.80;;;14.30;99.90;;;;;;4984326;28;20030;-69
2023/09/01 03:22:41;;;;;;;6.20;2.83;;;14.20;99.90;;;;;;4979372;28;20053;-67
2023/09/01 03:25:10;;;;;;;4.93;2.90;;;14.10;99.90;;;;;;4978639;28;20023;-69
2023/09/01 03:27:39;;;;;;;8.98;3.60;;;14.20;99.90;;;;;;4979417;28;20033;-66
2023/09/01 03:30:06;;;;;;;8.02;3.15;;;14.10;99.90;;;;;;4979156;28;20026;-67
2023/09/01 03:32:33;;;;;;;9.82;3.17;;;14.10;99.90;;;;;;4978740;28;20046;-66
2023/09/01 03:35:02;;;;;;;5.72;3.28;;;14.10;99.90;;;;;;4978505;28;20022;-66
2023/09/01 03:37:28;;;;;;;12.65;3.20;;;14.10;99.90;;;;;;4982542;28;20030;-67
2023/09/01 03:39:54;;;;;;;7.38;3.25;;;14.10;99.90;;;;;;4976379;28;20106;-66
2023/09/01 03:42:19;;;;;;;7.03;3.15;;;14.10;99.90;;;;;;4975126;28;20038;-66
2023/09/01 03:44:45;;;;;;;7.70;3.58;;;14.00;99.90;;;;;;4980202;28;20113;-66
2023/09/01 03:47:10;;;;;;;9.48;3.53;;;14.00;99.90;;;;;;4978187;28;20592;-67
2023/09/01 03:49:36;;;;;;;9.38;3.28;;;14.10;99.90;;;;;;4976670;28;20068;-69
2023/09/01 03:52:03;;;;;;;6.82;3.22;;;14.00;99.90;;;;;;4977205;28;20036;-67
2023/09/01 03:54:28;;;;;;;7.40;3.50;;;14.00;99.90;;;;;;4977344;28;20456;-69
2023/09/01 03:56:54;;;;;;;9.13;3.88;;;14.00;99.90;;;;;;4978979;28;20113;-67
2023/09/01 03:59:20;;;;;;;8.27;3.17;;;14.00;99.90;;;;;;4976170;28;20038;-66
2023/09/01 04:01:46;;;;;;;11.80;3.25;;;14.00;99.90;;;;;;4978300;28;20037;-66
2023/09/01 04:04:12;;;;;;;5.95;3.35;;;14.00;99.90;;;;;;4961428;28;20050;-67
2023/09/01 04:06:38;;;;;;;6.18;3.40;;;14.00;99.90;;;;;;4975762;28;20090;-66
2023/09/01 04:09:05;;;;;;;6.80;3.28;;;14.00;99.90;;;;;;4978759;28;20026;-66
2023/09/01 04:11:31;;;;;;;8.93;3.03;;;14.00;99.90;;;;;;4977762;28;20038;-67
2023/09/01 04:13:56;;;;;;;7.70;3.03;;;14.00;99.90;;;;;;4978239;28;20040;-67
2023/09/01 04:16:22;;;;;;;13.13;3.97;;;14.00;99.90;;;;;;4981225;28;20124;-67
2023/09/01 04:18:48;;;;;;;12.80;3.38;;;14.10;99.90;;;;;;4976276;28;20061;-66
2023/09/01 04:21:14;;;;;;;6.18;2.63;;;14.10;99.90;;;;;;4978098;28;20719;-68
2023/09/01 04:23:40;;;;;;;5.60;3.50;;;14.10;99.90;;;;;;4978186;28;20030;-69
2023/09/01 04:26:07;;;;;;;11.93;3.38;;;14.10;99.90;;;;;;4976312;28;20562;-67
2023/09/01 04:28:33;;;;;;;5.65;3.05;;;14.10;99.90;;;;;;4975876;28;20053;-66
2023/09/01 04:30:59;;;;;;;5.70;3.50;;;14.10;99.90;;;;;;4979108;28;20459;-66
2023/09/01 04:33:29;;;;;;;5.97;3.25;;;14.10;99.90;;;;;;4978439;28;20030;-69
2023/09/01 04:36:03;;;;;;;5.68;3.17;;;14.10;99.90;;;;;;4979574;28;20069;-66
2023/09/01 04:38:29;;;;;;;8.50;3.90;;;14.10;99.90;;;;;;4977836;28;20408;-66
2023/09/01 04:40:59;;;;;;;10.40;3.42;;;14.10;99.90;;;;;;4976733;28;20038;-69
2023/09/01 04:43:26;;;;;;;11.65;3.83;;;14.10;99.90;;;;;;4977510;28;20046;-69
2023/09/01 04:45:56;;;;;;;9.15;3.65;;;14.10;99.90;;;;;;4979439;28;20038;-68
2023/09/01 04:48:23;;;;;;;9.77;3.30;;;14.10;99.90;;;;;;4978432;28;20495;-69
2023/09/01 04:50:48;;;;;;;5.20;3.13;;;14.10;99.90;;;;;;4977984;28;20037;-68
2023/09/01 04:53:15;;;;;;;8.40;3.42;;;14.10;99.90;;;;;;4977056;28;20027;-68
2023/09/01 04:55:41;;;;;;;6.63;3.70;;;14.10;99.90;;;;;;4978893;28;20034;-69
2023/09/01 04:58:07;;;;;;;12.98;3.38;;;14.20;99.90;;;;;;4981736;28;20480;-68
2023/09/01 05:00:32;;;;;;;5.75;3.40;;;14.20;99.90;;;;;;4978833;28;20025;-69
2023/09/01 05:02:58;;;;;;;6.50;3.50;;;14.20;99.90;;;;;;4967460;28;20042;-69
2023/09/01 05:05:23;;;;;;;8.70;3.60;;;14.20;99.90;;;;;;4979619;28;20038;-69
2023/09/01 05:07:49;;;;;;;10.77;3.08;;;14.30;99.90;;;;;;4980287;28;20030;-69
2023/09/01 05:10:15;;;;;;;5.50;3.20;;;14.20;99.90;;;;;;4983105;28;20053;-68
2023/09/01 05:12:41;;;;;;;9.57;3.47;;;14.20;99.90;;;;;;4978768;28;20086;-68
2023/09/01 05:15:07;;;;;;;11.70;3.65;;;14.30;99.90;;;;;;4978887;28;20110;-68
2023/09/01 05:17:32;;;;;;;5.20;3.45;;;14.30;99.90;;;;;;4979413;28;20031;-68
2023/09/01 05:19:58;;;;;;;6.57;3.17;;;14.30;99.90;;;;;;4979020;28;20041;-70
2023/09/01 05:22:27;;;;;;;7.53;3.25;;;14.40;99.90;;;;;;4981449;28;20097;-70
2023/09/01 05:24:53;;;;;;;5.63;3.10;;;14.40;99.90;;;;;;4980124;28;20027;-69
2023/09/01 05:27:19;;;;;;;8.68;3.15;;;14.50;99.90;;;;;;4982224;28;20030;-68
2023/09/01 05:29:48;;;;;;;6.57;3.88;;;14.50;99.90;;;;;;4977952;28;20183;-68
2023/09/01 05:32:15;;;;;;;8.65;3.35;;;14.60;99.90;;;;;;4980664;28;20435;-69
2023/09/01 05:34:40;;;;;;;7.57;2.90;;;14.50;99.90;;;;;;4995603;28;20072;-68
2023/09/01 05:37:07;;;;;;;10.63;3.60;;;14.60;99.90;;;;;;4978461;28;20070;-69
2023/09/01 05:39:37;;;;;;;4.95;2.70;;;14.60;99.90;;;;;;4980638;28;20030;-69
2023/09/01 05:42:03;;;;;;;4.93;3.35;;;14.70;99.90;;;;;;4979746;28;20046;-69
2023/09/01 05:44:29;;;;;;;7.13;2.70;;;14.80;99.90;;;;;;4982513;28;20080;-68
2023/09/01 05:46:55;;;;;;;7.07;3.92;;;14.80;99.90;;;;;;4982094;28;20071;-69
2023/09/01 05:49:21;;;;;;;7.05;2.90;;;14.80;99.90;;;;;;4981787;28;20057;-69
2023/09/01 05:51:47;;;;;;;8.85;3.50;;;14.90;99.90;;;;;;4981354;28;20670;-68
2023/09/01 05:54:12;;;;;;;16.15;3.13;;;14.90;99.90;;;;;;4979891;28;20110;-68
2023/09/01 05:56:38;;;;;;;8.93;3.30;;;14.90;99.90;;;;;;4980348;28;20109;-69
2023/09/01 05:59:04;;;;;;;8.50;3.33;;;15.00;99.90;;;;;;4979994;28;20026;-68
2023/09/01 06:01:33;;;;;;;8.10;3.30;;;15.10;99.90;;;;;;4983286;28;20058;-69
2023/09/01 06:03:59;;;;;;;4.97;3.47;;;15.10;99.90;;;;;;4964732;28;20034;-68
2023/09/01 06:06:24;;;;;;;5.35;2.47;;;15.20;99.90;;;;;;4979034;28;20027;-69
2023/09/01 06:08:50;;;;;;;7.05;3.05;;;15.30;99.90;;;;;;4978758;28;20093;-69
2023/09/01 06:11:16;;;;;;;5.47;2.88;;;15.30;99.90;;;;;;4980698;28;21112;-68
2023/09/01 06:13:41;;;;;;;4.13;2.38;;;15.30;99.90;;;;;;4979691;28;20038;-69
2023/09/01 06:16:09;;;;;;;6.88;2.88;;;15.40;99.90;;;;;;4978155;28;20041;-68
2023/09/01 06:18:35;;;;;;;4.35;2.45;;;15.50;99.90;;;;;;4978345;28;20088;-69
2023/09/01 06:21:00;;;;;;;6.40;3.38;;;15.50;99.90;;;;;;4979582;28;20042;-69
2023/09/01 06:23:26;;;;;;;6.15;2.50;;;15.50;99.90;;;;;;4978746;28;22137;-67
2023/09/01 06:25:51;;;;;;;4.80;2.33;;;15.50;99.90;;;;;;4983566;28;20062;-68
2023/09/01 06:28:17;;;;;;;8.90;3.72;;;15.60;99.90;;;;;;4980659;28;20045;-69
2023/09/01 06:30:42;;;;;;;6.93;2.35;;;15.70;99.90;;;;;;4979187;28;20045;-69
2023/09/01 06:33:09;;;;;;;4.80;2.20;;;15.80;99.90;;;;;;4978588;28;20045;-69
2023/09/01 06:35:36;;;;;;;5.03;2.45;;;16.10;99.90;;;;;;4979547;28;20170;-68
2023/09/01 06:38:05;;;;;;;5.38;2.17;;;16.20;99.90;;;;;;4978748;28;20046;-68
2023/09/01 06:40:31;;;;;;;3.25;2.20;;;16.50;99.90;;;;;;4984525;28;20045;-69
2023/09/01 06:42:56;;;;;;;2.85;1.90;;;16.80;99.90;;;;;;4979864;28;20030;-69
2023/09/01 06:45:22;;;;;;;4.72;1.90;;;16.80;99.90;;;;;;4978329;28;20041;-68
2023/09/01 06:47:52;;;;;;;3.40;1.65;;;16.90;99.90;;;;;;4979388;28;20050;-67
2023/09/01 06:50:19;;;;;;;3.80;1.80;;;17.20;99.90;;;;;;4978963;28;20050;-66
2023/09/01 06:52:45;;;;;;;2.33;1.52;;;17.20;99.90;;;;;;4978231;28;20855;-67
2023/09/01 06:55:12;;;;;;;2.55;1.40;;;17.40;99.90;;;;;;4978386;28;20031;-65
2023/09/01 06:57:38;;;;;;;1.83;1.50;;;17.40;99.90;;;;;;4977793;28;20054;-67
2023/09/01 07:00:04;;;;;;;3.03;1.63;;;17.60;99.90;;;;;;4977367;28;20491;-69
2023/09/01 07:02:30;;;;;;;2.63;1.45;;;17.60;99.90;;;;;;4961847;28;20092;-69
2023/09/01 07:04:55;;;;;;;4.70;1.30;;;17.70;99.90;;;;;;4981796;28;20430;-68
2023/09/01 07:07:22;;;;;;;4.68;1.80;;;17.70;99.90;;;;;;4977760;28;20038;-68
2023/09/01 07:09:47;;;;;;;4.20;1.55;;;17.60;99.90;;;;;;4980741;28;20069;-68
2023/09/01 07:12:14;;;;;;;7.38;1.63;;;17.70;99.90;;;;;;4976447;28;20066;-68
2023/09/01 07:14:39;;;;;;;2.83;1.63;;;17.70;99.90;;;;;;4974453;28;20130;-68
2023/09/01 07:17:05;;;;;;;1.88;1.33;;;17.60;99.90;;;;;;4978718;28;20110;-68
2023/09/01 07:19:30;;;;;;;4.93;1.60;;;17.50;99.90;;;;;;4977955;28;20034;-68
2023/09/01 07:21:56;;;;;;;2.45;1.65;;;17.30;99.90;;;;;;4977495;28;20403;-69
2023/09/01 07:24:22;;;;;;;2.92;1.50;;;17.20;99.90;;;;;;4976884;28;20030;-70
2023/09/01 07:26:47;;;;;;;7.07;1.63;;;17.00;99.90;;;;;;4980060;28;20428;-68
2023/09/01 07:29:13;;;;;;;2.63;2.20;;;16.80;99.90;;;;;;4977915;28;20101;-68
2023/09/01 07:31:38;;;;;;;4.82;3.00;;;16.60;99.90;;;;;;4978405;28;20026;-69
2023/09/01 07:34:04;;;;;;;2.85;1.60;;;16.60;99.90;;;;;;4981657;28;20058;-68
2023/09/01 07:36:29;;;;;;;5.35;3.45;;;16.60;99.90;;;;;;4977220;28;21222;-68
2023/09/01 07:38:55;;;;;;;4.28;3.65;;;16.40;99.90;;;;;;4977511;28;20132;-68
2023/09/01 07:41:20;;;;;;;4.05;2.45;;;16.40;99.90;;;;;;4975240;28;20030;-68
2023/09/01 07:43:46;;;;;;;4.97;2.35;;;16.30;99.90;;;;;;4984403;28;20084;-69
2023/09/01 07:46:12;;;;;;;4.30;2.20;;;16.30;99.90;;;;;;4979216;28;20026;-68
2023/09/01 07:48:37;;;;;;;3.00;1.90;;;16.30;99.90;;;;;;4980647;28;20027;-69
2023/09/01 07:51:03;;;;;;;4.53;2.80;;;16.30;99.90;;;;;;4979140;28;20038;-69
2023/09/01 07:53:28;;;;;;;5.65;2.78;;;16.40;99.90;;;;;;4978386;28;20034;-68
2023/09/01 07:55:54;;;;;;;3.35;2.50;;;16.40;99.90;;;;;;4975956;28;20452;-68
2023/09/01 07:58:20;;;;;;;5.07;2.47;;;16.30;99.90;;;;;;4977847;28;20058;-68
2023/09/01 08:00:45;;;;;;;4.18;2.20;;;16.20;99.90;;;;;;4993599;28;20057;-68
2023/09/01 08:03:11;;;;;;;5.97;2.05;;;16.20;99.90;;;;;;4988628;28;20419;-68
2023/09/01 08:05:37;;;;;;;7.70;2.22;;;16.20;99.90;;;;;;5004819;28;20112;-68
2023/09/01 08:08:04;;;;;;;4.45;2.08;;;16.20;99.90;;;;;;5003792;28;20026;-69
2023/09/01 08:10:30;;;;;;;2.05;1.80;;;16.20;99.90;;;;;;5004059;28;20125;-69
2023/09/01 08:12:56;;;;;;;2.67;2.05;;;16.20;99.90;;;;;;5006183;28;20204;-69
2023/09/01 08:15:21;;;;;;;3.30;1.75;;;16.20;99.90;;;;;;5003581;28;20034;-68
2023/09/01 08:17:49;;;;;;;3.33;1.80;;;16.20;99.90;;;;;;5002735;28;20061;-69
2023/09/01 08:20:17;;;;;;;5.07;1.50;;;16.10;99.90;;;;;;5004434;28;20502;-68
2023/09/01 08:22:43;;;;;;;1.85;1.55;;;16.20;99.90;;;;;;5003293;28;20121;-69
2023/09/01 08:25:12;;;;;;;1.75;1.63;;;16.10;99.90;;;;;;5004921;28;20542;-69
2023/09/01 08:27:37;;;;;;;4.22;1.63;;;16.10;99.90;;;;;;5005861;28;20030;-68
2023/09/01 08:30:03;;;;;;;4.55;1.48;;;16.10;99.90;;;;;;5004448;28;20033;-68
2023/09/01 08:32:29;;;;;;;1.88;1.77;;;16.20;99.90;;;;;;5002884;28;20033;-68
2023/09/01 08:34:54;;;;;;;3.00;1.70;;;16.20;99.90;;;;;;5002886;28;20040;-68
2023/09/01 08:37:20;;;;;;;2.80;1.52;;;16.20;99.90;;;;;;5003773;28;20034;-68
2023/09/01 08:39:46;;;;;;;4.82;2.03;;;16.30;99.90;;;;;;5003880;28;20494;-68
2023/09/01 08:42:12;;;;;;;2.35;1.63;;;16.30;99.90;;;;;;5005911;28;20030;-68
2023/09/01 08:44:40;;;;;;;1.98;1.38;;;16.40;99.90;;;;;;5005094;28;20014;-68
2023/09/01 08:47:08;;;;;;;5.00;1.55;;;16.40;99.90;;;;;;5001036;28;20070;-68
2023/09/01 08:49:34;;;;;;;2.90;1.63;;;16.40;99.90;;;;;;5004808;28;20030;-68
2023/09/01 08:52:02;;;;;;;2.15;1.95;;;16.50;99.90;;;;;;5002683;28;20037;-67
2023/09/01 08:54:30;;;;;;;3.83;2.05;;;16.40;99.90;;;;;;5004344;28;20117;-68
2023/09/01 08:56:55;;;;;;;2.30;1.75;;;16.40;99.90;;;;;;5003387;28;20060;-68
2023/09/01 08:59:21;;;;;;;4.93;1.85;;;16.50;99.90;;;;;;4998541;28;20488;-68
2023/09/01 09:01:50;;;;;;;1.92;1.70;;;16.60;99.90;;;;;;5004051;28;20025;-68
2023/09/01 09:04:16;;;;;;;2.60;1.70;;;16.50;99.90;;;;;;4989263;28;20508;-67
2023/09/01 09:06:42;;;;;;;4.00;1.65;;;16.60;99.90;;;;;;4994635;28;20038;-68
2023/09/01 09:09:15;;;;;;;1.70;1.60;;;16.70;99.90;;;;;;5004533;28;20566;-68
2023/09/01 09:11:53;;;;;;;13.50;1.75;;;16.70;99.90;;;;;;5004145;28;20030;-69
2023/09/01 09:14:19;;;;;;;3.28;1.38;;;16.80;99.90;;;;;;5005496;28;20693;-68
2023/09/01 09:16:56;;;;;;;2.00;1.55;;;17.00;99.90;;;;;;5002028;28;20128;-68
2023/09/01 09:19:23;;;;;;;2.20;1.52;;;17.10;99.90;;;;;;5004580;28;20026;-68
2023/09/01 09:21:49;;;;;;;1.98;1.08;;;17.40;99.90;;;;;;5002316;28;20538;-68
2023/09/01 09:24:34;;;;;;;1.52;1.20;;;17.60;99.90;;;;;;4999862;28;20035;-68
2023/09/01 09:27:00;;;;;;;1.50;1.10;;;17.90;99.90;;;;;;5005074;28;20113;-68
2023/09/01 09:29:25;;;;;;;2.35;0.95;;;18.10;99.90;;;;;;5002830;28;20675;-68
2023/09/01 09:31:51;;;;;;;3.75;0.90;;;18.40;99.90;;;;;;5001832;28;20037;-68
2023/09/01 09:34:18;;;;;;;1.45;0.75;;;18.40;99.90;;;;;;5003346;28;20045;-68
2023/09/01 09:36:47;;;;;;;0.85;0.60;;;18.80;99.90;;;;;;4986152;28;20112;-68
2023/09/01 09:39:22;;;;;;;1.10;0.60;;;18.80;99.90;;;;;;5004210;28;20046;-67
2023/09/01 09:41:47;;;;;;;1.85;0.65;;;19.00;99.90;;;;;;5002658;28;20534;-68
2023/09/01 09:44:33;;;;;;;4.15;2.72;;;19.20;99.90;;;;;;4988856;28;20026;-68
2023/09/01 09:47:09;;;;;;;0.88;0.70;;;19.10;99.90;;;;;;5005291;28;20026;-68
2023/09/01 09:49:38;;;;;;;0.60;0.60;;;19.10;99.90;;;;;;5006460;28;20034;-68
2023/09/01 09:52:09;;;;;;;1.20;0.70;;;19.10;99.90;;;;;;5008731;28;20526;-68
2023/09/01 09:54:38;;;;;;;0.90;0.60;;;19.00;99.90;;;;;;5005686;28;20036;-68
2023/09/01 09:57:06;;;;;;;3.08;0.70;;;18.90;99.90;;;;;;5008024;28;20033;-68
2023/09/01 09:59:46;;;;;;;0.70;0.70;;;18.70;99.90;;;;;;5005243;28;20026;-68
2023/09/01 10:02:29;;;;;;;1.77;0.90;;;18.80;99.90;;;;;;5006622;28;20515;-68
2023/09/01 10:04:58;;;;;;;1.37;1.27;;;18.60;99.90;;;;;;4969848;28;20043;-68
2023/09/01 10:07:25;;;;;;;3.20;0.88;;;18.40;99.90;;;;;;4980610;28;20111;-68
2023/09/01 10:09:51;;;;;;;4.50;1.73;;;18.20;99.90;;;;;;4979266;28;20041;-68
2023/09/01 10:12:17;;;;;;;4.55;1.40;;;18.10;99.90;;;;;;4978220;28;20026;-68
2023/09/01 10:14:44;;;;;;;2.53;1.08;;;17.90;99.90;;;;;;4978333;28;20412;-68
2023/09/01 10:17:13;;;;;;;1.85;1.20;;;17.90;99.90;;;;;;4979699;28;20034;-69
2023/09/01 10:19:39;;;;;;;3.53;1.05;;;18.00;99.90;;;;;;4981571;28;20038;-68
2023/09/01 10:22:04;;;;;;;1.73;0.75;;;17.90;99.90;;;;;;4980678;28;20054;-68
2023/09/01 10:24:30;;;;;;;1.48;0.90;;;17.90;99.90;;;;;;4980162;28;20112;-67
2023/09/01 10:27:09;;;;;;;1.23;0.80;;;17.90;99.90;;;;;;4977435;28;20030;-68
2023/09/01 10:29:35;;;;;;;1.48;0.80;;;18.00;99.90;;;;;;4976155;28;20030;-68
2023/09/01 10:32:17;;;;;;;0.65;0.65;;;18.10;99.90;;;;;;4977544;28;20046;-68
2023/09/01 10:34:53;;;;;;;1.65;1.00;;;18.10;99.90;;;;;;4980250;28;20788;-68
2023/09/01 10:37:30;;;;;;;2.45;1.00;;;18.10;99.90;;;;;;4981008;28;20045;-68
2023/09/01 10:39:56;;;;;;;1.27;1.10;;;18.30;99.90;;;;;;4977151;28;20500;-68
2023/09/01 10:42:43;;;;;;;1.35;0.95;;;18.30;99.90;;;;;;4978529;28;20038;-68
2023/09/01 10:45:11;;;;;;;2.38;0.90;;;18.30;99.90;;;;;;4979368;28;20657;-68
2023/09/01 10:47:45;;;;;;;1.70;0.95;;;18.40;99.90;;;;;;4980331;28;20033;-68
2023/09/01 10:50:12;;;;;;;1.00;0.85;;;18.50;99.90;;;;;;4982965;28;20034;-68
2023/09/01 10:52:39;;;;;;;0.90;0.80;;;18.70;99.90;;;;;;4981732;28;20043;-68
2023/09/01 10:55:06;;;;;;;13.88;9.07;;;18.80;99.90;;;;;;4979407;28;20125;-68
2023/09/01 10:57:50;;;;;;;2.75;2.10;;;18.80;99.90;;;;;;4979233;28;20036;-68
2023/09/01 11:00:30;;;;;;;1.10;0.77;;;18.90;99.90;;;;;;4975394;28;20392;-68
2023/09/01 11:03:30;;;;;;;0.98;0.77;;;18.80;99.90;;;;;;4979985;28;20037;-69
2023/09/01 11:06:03;;;;;;;1.60;0.90;;;18.60;99.90;;;;;;4978159;28;20026;-69
2023/09/01 11:08:30;;;;;;;2.15;0.65;;;18.50;99.90;;;;;;4978771;28;20114;-69
2023/09/01 11:11:06;;;;;;;1.17;0.73;;;18.40;99.90;;;;;;4990117;28;20039;-68
2023/09/01 11:13:31;;;;;;;3.55;1.77;;;18.40;99.90;;;;;;4979311;28;20027;-68
2023/09/01 11:15:57;;;;;;;4.97;1.05;;;18.40;99.90;;;;;;4999223;28;20824;-68
2023/09/01 11:18:24;;;;;;;1.10;0.80;;;18.50;99.90;;;;;;4979139;28;21161;-68
2023/09/01 11:20:53;;;;;;;1.02;0.90;;;18.50;99.90;;;;;;4978725;28;20030;-68
2023/09/01 11:23:23;;;;;;;1.70;0.80;;;18.70;99.90;;;;;;4981044;28;20407;-68
2023/09/01 11:25:59;;;;;;;1.67;0.90;;;18.90;99.90;;;;;;4979416;28;20042;-68
2023/09/01 11:28:26;;;;;;;1.58;0.82;;;19.20;99.90;;;;;;4981342;28;20026;-69
2023/09/01 11:30:55;;;;;;;2.00;0.93;;;19.30;99.90;;;;;;4977497;28;20035;-69
2023/09/01 11:33:22;;;;;;;1.33;0.75;;;19.50;99.90;;;;;;4996666;28;20030;-68
2023/09/01 11:35:49;;;;;;;1.23;0.75;;;19.60;99.90;;;;;;4979343;28;20030;-68
2023/09/01 11:38:20;;;;;;;2.22;0.88;;;19.50;99.90;;;;;;4977443;28;20035;-69
2023/09/01 11:40:48;;;;;;;1.58;0.90;;;19.70;99.90;;;;;;4978464;28;20026;-68
2023/09/01 11:43:15;;;;;;;1.13;0.80;;;19.70;99.90;;;;;;4978488;28;20134;-68
2023/09/01 11:45:50;;;;;;;3.70;1.08;;;19.80;99.90;;;;;;4977851;28;21034;-68
2023/09/01 11:48:25;;;;;;;1.40;0.88;;;19.70;99.90;;;;;;4975513;28;20034;-69
2023/09/01 11:50:57;;;;;;;2.15;1.08;;;19.50;99.90;;;;;;4975743;28;20027;-67
2023/09/01 11:53:31;;;;;;;5.90;1.30;;;19.30;99.90;;;;;;4977947;28;20539;-67
2023/09/01 11:56:03;;;;;;;2.13;1.27;;;19.20;99.90;;;;;;4980582;28;20080;-67
2023/09/01 11:58:35;;;;;;;2.42;1.10;;;19.10;99.90;;;;;;4977331;28;20384;-67
2023/09/01 12:01:11;;;;;;;5.40;1.48;;;19.10;99.90;;;;;;4977659;28;20034;-67
2023/09/01 12:03:37;;;;;;;1.95;1.23;;;19.00;99.90;;;;;;4976203;28;20030;-68
2023/09/01 12:06:18;;;;;;;6.75;3.70;;;19.00;99.90;;;;;;4979171;28;20034;-67
2023/09/01 12:08:45;;;;;;;4.03;1.92;;;18.90;99.90;;;;;;4978119;28;20038;-66
2023/09/01 12:11:11;;;;;;;47.97;19.77;;;18.80;99.90;;;;;;4977302;28;20022;-67
2023/09/01 12:13:36;;;;;;;70.68;29.73;;;18.80;99.90;;;;;;4977959;28;20062;-67
2023/09/01 12:16:03;;;;;;;30.13;16.48;;;18.90;99.90;;;;;;4976981;28;20039;-67
2023/09/01 12:18:38;;;;;;;8.73;5.47;;;18.90;99.90;;;;;;4977576;28;20027;-67
2023/09/01 12:21:08;;;;;;;13.35;2.97;;;18.90;99.90;;;;;;4979543;28;20542;-69
2023/09/01 12:23:43;;;;;;;2.15;1.45;;;18.90;99.90;;;;;;4979184;28;20022;-67
2023/09/01 12:26:11;;;;;;;5.60;2.10;;;19.00;99.90;;;;;;4974719;28;20031;-67
2023/09/01 12:28:38;;;;;;;6.38;2.70;;;19.20;99.90;;;;;;4977358;28;20041;-68
2023/09/01 12:31:05;;;;;;;1.15;1.00;;;19.20;99.90;;;;;;4978978;28;20570;-67
2023/09/01 12:33:31;;;;;;;2.47;1.75;;;19.30;99.90;;;;;;4976358;28;20029;-67
2023/09/01 12:35:58;;;;;;;3.05;1.13;;;19.40;99.90;;;;;;4978181;28;20385;-67
2023/09/01 12:38:24;;;;;;;2.28;1.35;;;19.50;99.90;;;;;;4992398;28;20026;-68
2023/09/01 12:40:50;;;;;;;2.53;1.40;;;19.50;99.90;;;;;;4975651;28;20029;-67
2023/09/01 12:43:16;;;;;;;3.53;1.17;;;19.60;99.90;;;;;;4978496;28;20497;-67
2023/09/01 12:45:42;;;;;;;2.95;1.02;;;19.80;99.90;;;;;;4973681;28;20026;-69
2023/09/01 12:48:08;;;;;;;2.67;1.05;;;19.90;99.90;;;;;;4974971;28;20026;-68